AirNav   Duncan Aviation - Near you to keep you flying
 
 1185 users online  

LA18 Bunkie General Hospital Heliport
Bunkie, Louisiana, USA

GOING TO BUNKIE?


FAA INFORMATION EFFECTIVE 08 SEPTEMBER 2022

Location

FAA Identifier: LA18
Lat/Long: 30-57-08.2300N 092-10-30.9400W
30-57.137167N 092-10.515667W
30.9522861,-92.1752611
(estimated)
Elevation: 100 ft. / 30 m (estimated)
Variation: 03E (2000)
Time zone: UTC -5 (UTC -6 during Standard Time)
Zip code: 71322

Heliport Operations

Heliport use: Private use, MEDICAL.
Activation date: 11/2000
Control tower: no
ARTCC: HOUSTON CENTER
FSS: DE RIDDER FLIGHT SERVICE STATION
Attendance: MON-FRI 0630-1530
Wind indicator: lighted
Segmented circle: no
Lights: SS-SR

Nearby radio navigation aids

VOR radial/distance  VOR name  Freq  Var
AEXr135/24.8ALEXANDRIA VORTAC116.1003E

 
NDB name  Hdg/Dist  Freq  Var  ID
DURALDE029/27.426302EECY . -.-. -.--

Heliport Services

Runway Information

Helipad H1

Dimensions: 50 x 50 ft. / 15 x 15 m
Surface: concrete, in good condition
Runway edge lights: PERI
Latitude: 30-57.137167N
Longitude: 092-10.515667W
Elevation: 100.0 ft.
Traffic pattern: leftleft

Heliport Ownership and Management from official FAA records

Ownership: Privately-owned
Owner: BUNKIE GENERAL HOSPITAL
427 EVERGREEN STREET
BUNKIE, LA 71322
Phone 318-346-6681
Manager: TERRY RICHE
427 EVERGREEN STREET
BUNKIE, LA 71322
Phone 318-346-6681

Additional Remarks

A52-H1 100 FT ANT 200 FT WEST & 40 FT PLINES 100 FT WEST OF HELIPAD.
FOR CD CTC POLK APCH AT 337-531-2352.

Instrument Procedures

There are no published instrument procedures at LA18.

Some nearby airports with instrument procedures:

2R6 - Bunkie Municipal Airport (3 nm W)
KMKV - Marksville Municipal Airport (10 nm NE)
KOPL - St Landry Parish Airport-Ahart Field (24 nm S)
KESF - Esler Regional Airport (27 nm N)
KACP - Allen Parish Airport (29 nm SW)
 
Loc | Ops | Rwys | IFR | FBO | Links
Com | Nav | Svcs | Stats | Notes
Area around LA18 (Bunkie General Hospital Heliport)
 
Road maps at: MapQuest Bing Google
 
Aerial photo
No photo
 
Sectional chart

 
Airport distance calculator
Flying to Bunkie General Hospital Heliport? Find the distance to fly.

From to LA18

Sunrise and sunset
Times for 28-Sep-2022
 Local
(UTC-5)
 Zulu
(UTC)
Morning civil twilight06:3711:37
Sunrise07:0112:01
Sunset18:5723:57
Evening civil twilight19:2100:21

Current date and time
Zulu (UTC)  29-Sep-2022 02:27:02
Local (UTC-5)  28-Sep-2022 21:27:02
 
METAR
KOPL 
24nm S 
290215Z AUTO 00000KT 10SM CLR 16/11 A3018 RMK AO2 T01620107
KESF 
27nm N 
290153Z AUTO 00000KT 10SM CLR 16/13 A3019 RMK AO2 SLP223 T01560128
KACP 
29nm SW 
290215Z AUTO 00000KT 10SM CLR 15/12 A3019 RMK AO2
KAEX 
30nm NW 
290153Z 02004KT 10SM CLR 22/10 A3018 RMK AO2 SLP223 T02170100
KBKB 
38nm W 
290152Z AUTO 00000KT 10SM CLR 21/10 A3018 RMK AO2 SLP246 T02110100
KHZR 
39nm E 
290215Z AUTO 36005KT 10SM CLR 18/10 A3018 RMK AO2 T01790099
KPOE 
43nm W 
290155Z AUTO 02005KT 10SM CLR 22/10 A3019 RMK AO2 SLP224 T02160095
KLFT 
46nm S 
290153Z 02005KT 10SM CLR 20/09 A3016 RMK AO2 SLP211 T02000094
TAF
KAEX 
30nm NW 
281723Z 2818/2918 05006G12KT P6SM SKC FM290000 03003KT P6SM SKC
NOTAMs
Click for the latest NOTAMs
NOTAMs are issued by the DoD/FAA and will open in a separate window not controlled by AirNav.

 

 
 

Would you like to see your business listed on this page?

 If your business provides an interesting product or service to pilots, flight crews, aircraft, or users of the Bunkie General Hospital Heliport, you should consider listing it here.  To start the listing process, click on the button below
 
Add a business
 

Other Pages about Bunkie General Hospital Heliport

Update a link
 
Copyright © AirNav, LLC. All rights reserved. Privacy Policy  Contact